createdAt,value
2016-10-19T00:00:07.717Z,10.95
2016-10-19T00:01:07.473Z,10.96
2016-10-19T00:02:08.050Z,11.01
2016-10-19T00:03:07.728Z,11.04
2016-10-19T00:04:07.772Z,11.00
2016-10-19T00:05:08.354Z,11.03
2016-10-19T00:06:08.062Z,11.05
2016-10-19T00:07:07.422Z,11.04
2016-10-19T00:08:08.086Z,11.00
2016-10-19T00:09:07.957Z,11.03
2016-10-19T00:10:07.429Z,11.06
2016-10-19T00:11:08.050Z,11.10
2016-10-19T00:12:07.810Z,11.16
2016-10-19T00:13:07.469Z,11.10
2016-10-19T00:14:07.415Z,11.09
2016-10-19T00:15:07.902Z,11.10
2016-10-19T00:16:07.795Z,11.04
2016-10-19T00:17:07.409Z,11.05
2016-10-19T00:18:08.205Z,11.03
2016-10-19T00:19:07.944Z,11.05
2016-10-19T00:20:07.815Z,11.07
2016-10-19T00:21:07.431Z,11.04
2016-10-19T00:22:08.066Z,11.03
2016-10-19T00:23:07.786Z,10.99
2016-10-19T00:24:07.385Z,11.01
2016-10-19T00:25:07.852Z,11.04
2016-10-19T00:26:07.766Z,11.02
2016-10-19T00:27:07.190Z,10.99
2016-10-19T00:28:07.857Z,10.95
2016-10-19T00:29:07.718Z,10.99
2016-10-19T00:30:07.218Z,10.98
2016-10-19T00:31:08.435Z,11.03
2016-10-19T00:32:07.607Z,10.92
2016-10-19T00:33:07.475Z,10.91
2016-10-19T00:34:08.175Z,10.90
2016-10-19T00:35:08.189Z,10.89
2016-10-19T00:36:07.816Z,10.88
2016-10-19T00:37:08.418Z,10.88
2016-10-19T00:38:07.796Z,10.92
2016-10-19T00:39:07.797Z,10.89
2016-10-19T00:40:08.651Z,10.95
2016-10-19T00:41:07.906Z,10.98
2016-10-19T00:42:07.787Z,11.00
2016-10-19T00:43:08.094Z,10.99
2016-10-19T00:44:08.122Z,10.91
2016-10-19T00:45:07.817Z,10.94
2016-10-19T00:46:07.552Z,10.96
2016-10-19T00:47:08.210Z,10.93
2016-10-19T00:48:07.783Z,10.85
2016-10-19T00:49:07.827Z,10.83
2016-10-19T00:50:08.408Z,10.83
2016-10-19T00:51:07.748Z,10.79
2016-10-19T00:52:07.622Z,10.85
2016-10-19T00:53:08.159Z,10.81
2016-10-19T00:54:07.813Z,10.91
2016-10-19T00:55:07.814Z,10.83
2016-10-19T00:56:08.492Z,10.77
2016-10-19T00:57:07.851Z,10.75
2016-10-19T00:58:07.500Z,10.77
2016-10-19T00:59:08.229Z,10.88
2016-10-19T01:00:08.190Z,10.95
2016-10-19T01:01:07.791Z,10.88
2016-10-19T01:02:07.246Z,10.86
2016-10-19T01:03:08.198Z,10.94
2016-10-19T01:04:07.490Z,10.89
2016-10-19T01:05:08.112Z,10.95
2016-10-19T01:06:07.834Z,10.87
2016-10-19T01:07:07.564Z,10.92
2016-10-19T01:08:13.154Z,10.95
2016-10-19T01:09:08.067Z,10.75
2016-10-19T01:10:07.691Z,10.83
2016-10-19T01:11:07.507Z,10.88
2016-10-19T01:12:07.892Z,10.83
2016-10-19T01:13:08.859Z,10.80
2016-10-19T01:14:07.515Z,10.79
2016-10-19T01:15:08.465Z,10.80
2016-10-19T01:16:07.881Z,10.72
2016-10-19T01:17:07.505Z,10.80
2016-10-19T01:18:07.428Z,10.77
2016-10-19T01:19:08.117Z,10.77
2016-10-19T01:20:15.237Z,10.82
2016-10-19T01:21:07.498Z,10.84
2016-10-19T01:22:08.249Z,10.87
2016-10-19T01:23:07.835Z,10.80
2016-10-19T01:24:07.218Z,10.76
2016-10-19T01:25:08.154Z,10.77
2016-10-19T01:26:07.589Z,10.78
2016-10-19T01:27:07.500Z,10.73
2016-10-19T01:28:07.869Z,10.64
2016-10-19T01:29:07.830Z,10.70
2016-10-19T01:30:07.520Z,10.67
2016-10-19T01:31:08.457Z,10.61
2016-10-19T01:32:07.675Z,10.72
2016-10-19T01:33:07.354Z,10.76
2016-10-19T01:34:08.077Z,10.81
2016-10-19T01:35:08.200Z,10.83
2016-10-19T01:36:07.900Z,10.81
2016-10-19T01:37:08.207Z,10.84
2016-10-19T01:38:08.258Z,10.79
2016-10-19T01:39:07.679Z,10.82
2016-10-19T01:40:07.589Z,10.72
2016-10-19T01:41:07.864Z,10.74
2016-10-19T01:42:07.910Z,10.75
2016-10-19T01:43:07.624Z,10.70
2016-10-19T01:44:07.920Z,10.73
2016-10-19T01:45:07.957Z,10.74
2016-10-19T01:46:07.264Z,10.73
2016-10-19T01:47:08.275Z,10.66
2016-10-19T01:48:07.869Z,10.76
2016-10-19T01:49:07.600Z,10.78
2016-10-19T01:50:08.027Z,10.66
2016-10-19T01:51:07.912Z,10.67
2016-10-19T01:52:07.607Z,10.60
2016-10-19T01:53:07.947Z,10.69
2016-10-19T01:54:07.902Z,10.75
2016-10-19T01:55:08.256Z,10.73
2016-10-19T01:56:08.201Z,10.74
2016-10-19T01:57:07.920Z,10.72
2016-10-19T01:58:07.587Z,10.70
2016-10-19T01:59:07.902Z,10.76
2016-10-19T02:00:07.638Z,10.77
2016-10-19T02:01:07.588Z,10.75
2016-10-19T02:02:07.960Z,10.74
2016-10-19T02:03:07.999Z,10.75
2016-10-19T02:04:07.356Z,10.76
2016-10-19T02:05:08.225Z,10.78
2016-10-19T02:06:07.623Z,10.78
2016-10-19T02:07:07.623Z,10.70
2016-10-19T02:08:08.291Z,10.58
2016-10-19T02:09:07.936Z,10.57
2016-10-19T02:10:07.279Z,10.64
2016-10-19T02:11:08.252Z,10.67
2016-10-19T02:12:07.985Z,10.66
2016-10-19T02:13:07.271Z,10.66
2016-10-19T02:14:08.282Z,10.68
2016-10-19T02:15:07.912Z,10.64
2016-10-19T02:16:07.625Z,10.58
2016-10-19T02:17:07.952Z,10.67
2016-10-19T02:18:08.030Z,10.71
2016-10-19T02:19:07.439Z,10.68
2016-10-19T02:20:07.959Z,10.65
2016-10-19T02:21:07.658Z,10.67
2016-10-19T02:22:07.343Z,10.56
2016-10-19T02:23:07.982Z,10.68
2016-10-19T02:24:08.072Z,10.68
2016-10-19T02:25:07.692Z,10.78
2016-10-19T02:26:08.310Z,10.72
2016-10-19T02:27:07.588Z,10.75
2016-10-19T02:28:07.622Z,10.75
2016-10-19T02:29:08.232Z,10.68
2016-10-19T02:30:08.005Z,10.64
2016-10-19T02:31:07.298Z,10.60
2016-10-19T02:32:08.875Z,10.61
2016-10-19T02:33:07.637Z,10.56
2016-10-19T02:34:07.625Z,10.57
2016-10-19T02:35:08.273Z,10.64
2016-10-19T02:36:07.624Z,10.59
2016-10-19T02:37:07.604Z,10.71
2016-10-19T02:38:08.265Z,10.77
2016-10-19T02:39:07.983Z,10.77
2016-10-19T02:40:07.318Z,10.73
2016-10-19T02:41:08.286Z,10.77
2016-10-19T02:42:07.744Z,10.71
2016-10-19T02:43:07.309Z,10.68
2016-10-19T02:44:07.993Z,10.59
2016-10-19T02:45:07.639Z,10.54
2016-10-19T02:46:07.575Z,10.65
2016-10-19T02:47:08.948Z,10.68
2016-10-19T02:48:07.674Z,10.78
2016-10-19T02:49:07.663Z,10.73
2016-10-19T02:50:07.961Z,10.74
2016-10-19T02:51:07.660Z,10.65
2016-10-19T02:52:07.664Z,10.57
2016-10-19T02:53:08.001Z,10.55
2016-10-19T02:54:07.987Z,10.66
2016-10-19T02:55:07.679Z,10.64
2016-10-19T02:56:08.010Z,10.70
2016-10-19T02:57:07.673Z,10.66
2016-10-19T02:58:07.687Z,10.65
2016-10-19T02:59:08.240Z,10.70
2016-10-19T03:00:07.966Z,10.66
2016-10-19T03:01:07.655Z,10.63
2016-10-19T03:02:08.027Z,10.64
2016-10-19T03:03:07.773Z,10.68
2016-10-19T03:04:07.628Z,10.70
2016-10-19T03:05:07.914Z,10.63
2016-10-19T03:06:07.660Z,10.64
2016-10-19T03:07:07.652Z,10.67
2016-10-19T03:08:07.992Z,10.60
2016-10-19T03:09:07.770Z,10.62
2016-10-19T03:10:07.481Z,10.49
2016-10-19T03:11:08.004Z,10.54
2016-10-19T03:12:07.702Z,10.56
2016-10-19T03:13:07.489Z,10.60
2016-10-19T03:14:09.172Z,10.58
2016-10-19T03:15:07.744Z,10.62
2016-10-19T03:16:10.241Z,10.62
2016-10-19T03:17:08.089Z,10.59
2016-10-19T03:18:08.045Z,10.57
2016-10-19T03:19:07.580Z,10.63
2016-10-19T03:20:08.333Z,10.50
2016-10-19T03:21:08.044Z,10.58
2016-10-19T03:22:07.661Z,10.61
2016-10-19T03:23:07.428Z,10.55
2016-10-19T03:24:07.887Z,10.51
2016-10-19T03:25:07.701Z,10.52
2016-10-19T03:26:07.447Z,10.57
2016-10-19T03:27:08.122Z,10.59
2016-10-19T03:28:08.008Z,10.62
2016-10-19T03:29:07.547Z,10.63
2016-10-19T03:30:08.022Z,10.47
2016-10-19T03:31:07.829Z,10.48
2016-10-19T03:32:07.452Z,10.54
2016-10-19T03:33:08.059Z,10.61
2016-10-19T03:34:08.034Z,10.66
2016-10-19T03:35:07.376Z,10.62
2016-10-19T03:36:08.107Z,10.64
2016-10-19T03:37:08.851Z,10.58
2016-10-19T03:38:07.760Z,10.68
2016-10-19T03:39:08.021Z,10.76
2016-10-19T03:40:07.853Z,10.65
2016-10-19T03:41:07.771Z,10.67
2016-10-19T03:42:08.154Z,10.64
2016-10-19T03:43:07.808Z,10.49
2016-10-19T03:44:07.420Z,10.50
2016-10-19T03:45:08.061Z,10.57
2016-10-19T03:46:08.082Z,10.65
2016-10-19T03:47:07.408Z,10.59
2016-10-19T03:48:08.101Z,10.71
2016-10-19T03:49:07.709Z,10.67
2016-10-19T03:50:07.408Z,10.69
2016-10-19T03:51:08.004Z,10.65
2016-10-19T03:52:07.769Z,10.66
2016-10-19T03:53:07.426Z,10.69
2016-10-19T03:54:08.175Z,10.72
2016-10-19T03:55:07.777Z,10.58
2016-10-19T03:56:07.833Z,10.60
2016-10-19T03:57:08.043Z,10.55
2016-10-19T03:58:07.841Z,10.59
2016-10-19T03:59:07.711Z,10.54
2016-10-19T04:00:08.131Z,10.61
2016-10-19T04:01:08.198Z,10.66
2016-10-19T04:02:07.713Z,10.73
2016-10-19T04:03:08.447Z,10.60
2016-10-19T04:04:07.778Z,10.63
2016-10-19T04:05:07.357Z,10.69
2016-10-19T04:06:08.409Z,10.75
2016-10-19T04:07:07.841Z,10.70
2016-10-19T04:08:07.783Z,10.73
2016-10-19T04:09:08.088Z,10.67
2016-10-19T04:10:08.073Z,10.67
2016-10-19T04:11:07.452Z,10.62
2016-10-19T04:12:08.318Z,10.60
2016-10-19T04:13:08.021Z,10.61
2016-10-19T04:14:07.874Z,10.63
2016-10-19T04:15:08.482Z,10.56
2016-10-19T04:16:08.541Z,10.54
2016-10-19T04:17:07.541Z,10.65
2016-10-19T04:18:08.462Z,10.74
2016-10-19T04:19:07.830Z,10.73
2016-10-19T04:20:07.764Z,10.81
2016-10-19T04:21:07.228Z,10.71
2016-10-19T04:22:08.056Z,10.60
2016-10-19T04:23:07.874Z,10.67
2016-10-19T04:24:08.274Z,10.72
2016-10-19T04:25:10.558Z,10.73
2016-10-19T04:26:07.832Z,10.69
2016-10-19T04:27:07.793Z,10.68
2016-10-19T04:28:08.215Z,10.64
2016-10-19T04:29:07.783Z,10.64
2016-10-19T04:30:07.597Z,10.65
2016-10-19T04:31:08.493Z,10.69
2016-10-19T04:32:08.784Z,10.70
2016-10-19T04:33:07.456Z,10.72
2016-10-19T04:34:08.217Z,10.67
2016-10-19T04:35:08.175Z,10.62
2016-10-19T04:36:07.635Z,10.68
2016-10-19T04:37:08.038Z,10.70
2016-10-19T04:38:08.094Z,10.71
2016-10-19T04:39:07.488Z,10.69
2016-10-19T04:40:08.239Z,10.69
2016-10-19T04:41:07.817Z,10.65
2016-10-19T04:42:12.997Z,10.70
2016-10-19T04:43:08.440Z,10.75
2016-10-19T04:44:08.795Z,10.72
2016-10-19T04:45:07.608Z,10.67
2016-10-19T04:46:08.503Z,10.70
2016-10-19T04:47:08.572Z,10.75
2016-10-19T04:48:08.162Z,10.59
2016-10-19T04:49:08.492Z,10.65
2016-10-19T04:50:08.237Z,10.69
2016-10-19T04:51:07.840Z,10.68
2016-10-19T04:52:08.082Z,10.74
2016-10-19T04:53:08.205Z,10.68
2016-10-19T04:54:07.818Z,10.79
2016-10-19T04:55:08.463Z,10.67
2016-10-19T04:56:07.830Z,10.56
2016-10-19T04:57:07.845Z,10.64
2016-10-19T04:58:08.259Z,10.63
2016-10-19T04:59:07.861Z,10.66
2016-10-19T05:00:07.784Z,10.68
2016-10-19T05:01:09.441Z,10.71
2016-10-19T05:02:07.869Z,10.71
2016-10-19T05:03:07.842Z,10.56
2016-10-19T05:04:08.191Z,10.51
2016-10-19T05:05:07.789Z,10.62
2016-10-19T05:06:07.578Z,10.67
2016-10-19T05:07:08.216Z,10.64
2016-10-19T05:08:07.896Z,10.50
2016-10-19T05:09:07.919Z,10.56
2016-10-19T05:10:08.997Z,10.60
2016-10-19T05:11:07.839Z,10.60
2016-10-19T05:12:07.668Z,10.58
2016-10-19T05:13:08.137Z,10.56
2016-10-19T05:14:08.187Z,10.57
2016-10-19T05:15:08.128Z,10.61
2016-10-19T05:16:08.252Z,10.60
2016-10-19T05:17:08.214Z,10.56
2016-10-19T05:18:07.612Z,10.55
2016-10-19T05:19:07.507Z,10.63
2016-10-19T05:20:08.741Z,10.68
2016-10-19T05:21:07.577Z,10.70
2016-10-19T05:22:07.581Z,10.78
2016-10-19T05:23:07.872Z,10.63
2016-10-19T05:24:07.551Z,10.56
2016-10-19T05:25:08.584Z,10.62
2016-10-19T05:26:08.238Z,10.61
2016-10-19T05:27:07.892Z,10.66
2016-10-19T05:28:08.257Z,10.65
2016-10-19T05:29:08.193Z,10.61
2016-10-19T05:30:07.874Z,10.58
2016-10-19T05:31:08.309Z,10.42
2016-10-19T05:32:08.183Z,10.59
2016-10-19T05:33:07.861Z,10.65
2016-10-19T05:34:08.525Z,10.69
2016-10-19T05:35:08.241Z,10.59
2016-10-19T05:36:07.905Z,10.59
2016-10-19T05:37:08.780Z,10.62
2016-10-19T05:38:07.877Z,10.61
2016-10-19T05:39:07.558Z,10.53
2016-10-19T05:40:08.277Z,10.63
2016-10-19T05:41:07.887Z,10.49
2016-10-19T05:42:07.824Z,10.53
2016-10-19T05:43:08.590Z,10.56
2016-10-19T05:44:08.251Z,10.45
2016-10-19T05:45:07.565Z,10.37
2016-10-19T05:46:08.189Z,10.44
2016-10-19T05:47:08.233Z,10.50
2016-10-19T05:48:07.672Z,10.54
2016-10-19T05:49:08.598Z,10.50
2016-10-19T05:50:07.907Z,10.35
2016-10-19T05:51:07.693Z,10.44
2016-10-19T05:52:08.198Z,10.44
2016-10-19T05:53:08.195Z,10.55
2016-10-19T05:54:07.562Z,10.61
2016-10-19T05:55:08.613Z,10.56
2016-10-19T05:56:08.256Z,10.42
2016-10-19T05:57:07.949Z,10.42
2016-10-19T05:58:08.593Z,10.46
2016-10-19T05:59:08.243Z,10.59
2016-10-19T06:00:07.964Z,10.58
2016-10-19T06:01:08.414Z,10.43
2016-10-19T06:02:07.956Z,10.41
2016-10-19T06:03:07.932Z,10.49
2016-10-19T06:04:08.392Z,10.49
2016-10-19T06:05:08.293Z,10.52
2016-10-19T06:06:07.705Z,10.52
2016-10-19T06:07:07.247Z,10.65
2016-10-19T06:08:08.004Z,10.60
2016-10-19T06:09:07.943Z,10.63
2016-10-19T06:10:08.376Z,10.63
2016-10-19T06:11:08.234Z,10.64
2016-10-19T06:12:07.924Z,10.61
2016-10-19T06:13:07.385Z,10.57
2016-10-19T06:14:08.026Z,10.50
2016-10-19T06:15:07.956Z,10.53
2016-10-19T06:16:09.200Z,10.58
2016-10-19T06:17:07.980Z,10.57
2016-10-19T06:18:07.996Z,10.58
2016-10-19T06:19:07.954Z,10.66
2016-10-19T06:20:08.234Z,10.64
2016-10-19T06:21:07.928Z,10.57
2016-10-19T06:22:07.688Z,10.67
2016-10-19T06:23:07.383Z,10.62
2016-10-19T06:24:08.285Z,10.63
2016-10-19T06:25:07.619Z,10.52
2016-10-19T06:26:08.565Z,10.55
2016-10-19T06:27:08.343Z,10.57
2016-10-19T06:28:07.983Z,10.57
2016-10-19T06:29:07.408Z,10.53
2016-10-19T06:30:09.138Z,10.50
2016-10-19T06:31:07.919Z,10.51
2016-10-19T06:32:07.681Z,10.54
2016-10-19T06:33:08.237Z,10.55
2016-10-19T06:34:07.754Z,10.42
2016-10-19T06:35:07.685Z,10.43
2016-10-19T06:36:08.002Z,10.54
2016-10-19T06:37:07.999Z,10.57
2016-10-19T06:38:07.523Z,10.62
2016-10-19T06:39:08.314Z,10.65
2016-10-19T06:40:07.631Z,10.62
2016-10-19T06:41:07.611Z,10.65
2016-10-19T06:42:07.992Z,10.63
2016-10-19T06:43:07.630Z,10.59
2016-10-19T06:44:07.379Z,10.57
2016-10-19T06:45:08.000Z,10.63
2016-10-19T06:46:08.013Z,10.60
2016-10-19T06:47:07.358Z,10.67
2016-10-19T06:48:08.283Z,10.66
2016-10-19T06:49:07.670Z,10.67
2016-10-19T06:50:07.671Z,10.55
2016-10-19T06:51:08.026Z,10.46
2016-10-19T06:52:07.671Z,10.62
2016-10-19T06:53:07.428Z,10.56
2016-10-19T06:54:08.325Z,10.59
2016-10-19T06:55:07.679Z,10.59
2016-10-19T06:56:07.799Z,10.62
2016-10-19T06:57:07.914Z,10.69
2016-10-19T06:58:07.946Z,10.65
2016-10-19T06:59:07.439Z,10.48
2016-10-19T07:00:07.931Z,10.43
2016-10-19T07:01:07.738Z,10.51
2016-10-19T07:02:08.376Z,10.57
2016-10-19T07:03:08.336Z,10.61
2016-10-19T07:04:07.678Z,10.57
2016-10-19T07:05:07.608Z,10.65
2016-10-19T07:06:08.040Z,10.70
2016-10-19T07:07:07.735Z,10.64
2016-10-19T07:08:08.347Z,10.52
2016-10-19T07:09:07.965Z,10.57
2016-10-19T07:10:07.409Z,10.50
2016-10-19T07:11:08.141Z,10.53
2016-10-19T07:12:07.924Z,10.55
2016-10-19T07:13:07.723Z,10.65
2016-10-19T07:14:08.120Z,10.66
2016-10-19T07:15:07.825Z,10.64
2016-10-19T07:16:07.414Z,10.63
2016-10-19T07:17:08.137Z,10.65
2016-10-19T07:18:08.017Z,10.66
2016-10-19T07:19:07.447Z,10.72
2016-10-19T07:20:08.113Z,10.70
2016-10-19T07:21:07.835Z,10.61
2016-10-19T07:22:07.736Z,10.47
2016-10-19T07:23:08.073Z,10.54
2016-10-19T07:24:07.695Z,10.70
2016-10-19T07:25:07.358Z,10.72
2016-10-19T07:26:08.003Z,10.70
2016-10-19T07:27:07.830Z,10.66
2016-10-19T07:28:07.259Z,10.70
2016-10-19T07:29:08.316Z,10.72
2016-10-19T07:30:07.802Z,10.60
2016-10-19T07:31:07.424Z,10.63
2016-10-19T07:32:08.308Z,10.65
2016-10-19T07:33:07.786Z,10.61
2016-10-19T07:34:08.403Z,10.71
2016-10-19T07:35:08.045Z,10.70
2016-10-19T07:36:07.710Z,10.76
2016-10-19T07:37:08.375Z,10.70
2016-10-19T07:38:07.840Z,10.73
2016-10-19T07:39:07.418Z,10.74
2016-10-19T07:40:08.414Z,10.68
2016-10-19T07:41:08.035Z,10.60
2016-10-19T07:42:07.413Z,10.64
2016-10-19T07:43:08.432Z,10.58
2016-10-19T07:44:07.728Z,10.63
2016-10-19T07:45:07.428Z,10.60
2016-10-19T07:46:08.072Z,10.60
2016-10-19T07:47:08.122Z,10.69
2016-10-19T07:48:07.503Z,10.72
2016-10-19T07:49:08.058Z,10.83
2016-10-19T07:50:07.794Z,10.83
2016-10-19T07:51:07.429Z,10.78
2016-10-19T07:52:08.084Z,10.76
2016-10-19T07:53:07.769Z,10.82
2016-10-19T07:54:07.453Z,10.76
2016-10-19T07:55:08.326Z,10.80
2016-10-19T07:56:07.782Z,10.78
2016-10-19T07:57:07.148Z,10.86
2016-10-19T07:58:08.111Z,10.72
2016-10-19T07:59:07.734Z,10.71
2016-10-19T08:00:08.373Z,10.83
2016-10-19T08:01:07.807Z,10.87
2016-10-19T08:02:07.435Z,10.82
2016-10-19T08:03:08.461Z,10.75
2016-10-19T08:04:07.759Z,10.84
2016-10-19T08:05:07.829Z,10.97
2016-10-19T08:06:08.458Z,10.98
2016-10-19T08:07:08.124Z,10.97
2016-10-19T08:08:07.823Z,10.97
2016-10-19T08:09:08.449Z,10.94
2016-10-19T08:10:07.988Z,11.02
2016-10-19T08:11:07.753Z,11.00
2016-10-19T08:12:08.448Z,11.05
2016-10-19T08:13:08.117Z,11.09
2016-10-19T08:14:07.537Z,11.13
2016-10-19T08:15:08.060Z,11.14
2016-10-19T08:16:07.790Z,11.17
2016-10-19T08:17:07.469Z,11.20
2016-10-19T08:18:08.457Z,11.10
2016-10-19T08:19:08.100Z,11.19
2016-10-19T08:20:07.489Z,11.19
2016-10-19T08:21:08.042Z,11.19
2016-10-19T08:22:07.829Z,11.09
2016-10-19T08:23:07.458Z,11.13
2016-10-19T08:24:08.129Z,11.16
2016-10-19T08:25:07.828Z,11.23
2016-10-19T08:26:07.174Z,11.34
2016-10-19T08:27:07.935Z,11.24
2016-10-19T08:28:07.826Z,11.25
2016-10-19T08:29:08.304Z,10.85
2016-10-19T08:30:07.830Z,10.85
2016-10-19T08:31:07.483Z,10.98
2016-10-19T08:32:08.486Z,11.11
2016-10-19T08:33:07.870Z,11.18
2016-10-19T08:34:07.479Z,11.19
2016-10-19T08:35:08.109Z,11.23
2016-10-19T08:36:07.800Z,11.32
2016-10-19T08:37:07.825Z,11.15
2016-10-19T08:38:09.319Z,11.10
2016-10-19T08:39:07.868Z,11.09
2016-10-19T08:40:07.596Z,11.04
2016-10-19T08:41:08.255Z,11.13
2016-10-19T08:42:08.154Z,11.22
2016-10-19T08:43:07.587Z,11.23
2016-10-19T08:44:09.161Z,11.26
2016-10-19T08:45:07.799Z,11.37
2016-10-19T08:46:07.526Z,11.39
2016-10-19T08:47:08.194Z,11.32
2016-10-19T08:48:07.883Z,11.02
2016-10-19T08:49:07.392Z,11.10
2016-10-19T08:50:08.144Z,11.14
2016-10-19T08:51:07.747Z,11.17
2016-10-19T08:52:07.191Z,11.25
2016-10-19T08:53:08.212Z,11.01
2016-10-19T08:54:07.862Z,11.19
2016-10-19T08:55:08.235Z,11.09
2016-10-19T08:56:08.166Z,11.18
2016-10-19T08:57:07.621Z,11.16
2016-10-19T08:58:08.493Z,11.08
2016-10-19T08:59:07.938Z,11.21
2016-10-19T09:00:07.613Z,11.21
2016-10-19T09:01:09.332Z,11.15
2016-10-19T09:02:07.904Z,11.09
2016-10-19T09:03:07.544Z,11.17
2016-10-19T09:04:08.138Z,11.05
2016-10-19T09:05:07.833Z,10.88
2016-10-19T09:06:07.225Z,10.81
2016-10-19T09:07:08.133Z,10.99
2016-10-19T09:08:07.551Z,10.78
2016-10-19T09:09:07.582Z,10.81
2016-10-19T09:10:07.824Z,10.87
2016-10-19T09:11:07.520Z,10.92
2016-10-19T09:12:08.150Z,11.10
2016-10-19T09:13:07.834Z,11.01
2016-10-19T09:14:07.892Z,10.91
2016-10-19T09:15:08.218Z,11.01
2016-10-19T09:16:08.191Z,10.99
2016-10-19T09:17:07.447Z,10.92
2016-10-19T09:18:08.231Z,10.95
2016-10-19T09:19:07.946Z,11.13
2016-10-19T09:20:07.550Z,11.15
2016-10-19T09:21:08.538Z,11.06
2016-10-19T09:22:07.859Z,11.19
2016-10-19T09:23:07.891Z,11.18
2016-10-19T09:24:08.517Z,10.99
2016-10-19T09:25:07.873Z,11.03
2016-10-19T09:26:07.387Z,11.07
2016-10-19T09:27:08.230Z,11.21
2016-10-19T09:28:07.693Z,11.00
2016-10-19T09:29:07.262Z,10.96
2016-10-19T09:30:08.015Z,11.08
2016-10-19T09:31:07.607Z,11.25
2016-10-19T09:32:07.258Z,11.34
2016-10-19T09:33:07.853Z,11.43
2016-10-19T09:34:07.612Z,11.33
2016-10-19T09:35:08.310Z,11.24
2016-10-19T09:36:08.217Z,11.21
2016-10-19T09:37:07.649Z,11.27
2016-10-19T09:38:08.272Z,11.35
2016-10-19T09:39:07.889Z,11.39
2016-10-19T09:40:07.637Z,11.36
2016-10-19T09:41:08.219Z,11.16
2016-10-19T09:42:07.974Z,11.14
2016-10-19T09:43:07.394Z,11.18
2016-10-19T09:44:08.221Z,11.24
2016-10-19T09:45:07.884Z,11.15
2016-10-19T09:46:07.282Z,11.21
2016-10-19T09:47:08.201Z,11.21
2016-10-19T09:48:07.737Z,11.16
2016-10-19T09:49:07.303Z,11.14
2016-10-19T09:50:08.288Z,11.32
2016-10-19T09:51:07.947Z,11.23
2016-10-19T09:52:08.608Z,11.25
2016-10-19T09:53:07.967Z,11.36
2016-10-19T09:54:07.629Z,11.12
2016-10-19T09:55:08.311Z,11.11
2016-10-19T09:56:07.978Z,11.09
2016-10-19T09:57:07.434Z,11.12
2016-10-19T09:58:08.203Z,11.26
2016-10-19T09:59:07.977Z,11.19
2016-10-19T10:00:07.282Z,11.17
2016-10-19T10:01:07.965Z,11.08
2016-10-19T10:02:07.620Z,11.16
2016-10-19T10:03:07.361Z,10.99
2016-10-19T10:04:07.969Z,11.05
2016-10-19T10:05:07.565Z,11.10
2016-10-19T10:06:08.293Z,11.04
2016-10-19T10:07:08.264Z,11.01
2016-10-19T10:08:07.698Z,10.96
2016-10-19T10:09:08.336Z,10.89
2016-10-19T10:10:07.923Z,10.85
2016-10-19T10:11:07.753Z,10.73
2016-10-19T10:12:08.185Z,10.74
2016-10-19T10:13:08.019Z,10.31
2016-10-19T10:14:07.646Z,10.36
2016-10-19T10:15:08.300Z,10.07
2016-10-19T10:16:07.957Z,10.40
2016-10-19T10:17:07.413Z,10.50
2016-10-19T10:18:07.376Z,10.47
2016-10-19T10:19:07.983Z,10.56
2016-10-19T10:20:07.702Z,10.66
2016-10-19T10:21:07.348Z,10.54
2016-10-19T10:22:08.258Z,10.45
2016-10-19T10:23:07.680Z,10.44
2016-10-19T10:24:08.609Z,10.23
2016-10-19T10:25:08.290Z,10.22
2016-10-19T10:26:07.698Z,10.15
2016-10-19T10:27:09.282Z,10.10
2016-10-19T10:28:08.260Z,10.13
2016-10-19T10:29:07.670Z,10.20
2016-10-19T10:30:08.291Z,10.20
2016-10-19T10:31:07.962Z,10.17
2016-10-19T10:32:07.403Z,10.21
2016-10-19T10:33:08.282Z,10.23
2016-10-19T10:34:07.726Z,10.26
2016-10-19T10:35:07.680Z,10.20
2016-10-19T10:36:08.067Z,10.01
2016-10-19T10:37:07.664Z,9.99
2016-10-19T10:38:07.653Z,10.01
2016-10-19T10:39:07.964Z,10.05
2016-10-19T10:40:07.663Z,9.93
2016-10-19T10:41:07.646Z,9.89
2016-10-19T10:42:08.320Z,9.71
2016-10-19T10:43:07.709Z,9.78
2016-10-19T10:44:08.600Z,9.83
2016-10-19T10:45:07.965Z,9.80
2016-10-19T10:46:07.689Z,9.59
2016-10-19T10:47:08.337Z,9.81
2016-10-19T10:48:07.962Z,9.90
2016-10-19T10:49:07.633Z,9.88
2016-10-19T10:50:08.292Z,9.90
2016-10-19T10:51:07.745Z,10.01
2016-10-19T10:52:07.353Z,9.95
2016-10-19T10:53:08.309Z,9.77
2016-10-19T10:54:08.044Z,9.95
2016-10-19T10:55:07.459Z,10.03
2016-10-19T10:56:08.026Z,9.99
2016-10-19T10:57:08.019Z,10.12
2016-10-19T10:58:07.419Z,9.57
2016-10-19T10:59:08.044Z,9.71
2016-10-19T11:00:07.760Z,9.82
2016-10-19T11:01:07.412Z,9.87
2016-10-19T11:02:08.322Z,9.76
2016-10-19T11:03:07.733Z,9.71
2016-10-19T11:04:08.354Z,9.51
2016-10-19T11:05:07.877Z,9.57
2016-10-19T11:06:07.680Z,9.74
2016-10-19T11:07:08.313Z,9.92
2016-10-19T11:08:07.991Z,9.75
2016-10-19T11:09:07.451Z,9.64
2016-10-19T11:10:08.079Z,9.86
2016-10-19T11:11:08.081Z,9.87
2016-10-19T11:12:07.404Z,9.67
2016-10-19T11:13:08.341Z,9.78
2016-10-19T11:14:08.041Z,9.87
2016-10-19T11:15:07.734Z,9.95
2016-10-19T11:16:08.242Z,10.12
2016-10-19T11:17:07.733Z,10.14
2016-10-19T11:18:07.533Z,10.28
2016-10-19T11:19:13.872Z,10.25
2016-10-19T11:20:07.699Z,10.30
2016-10-19T11:21:07.414Z,10.35
2016-10-19T11:22:08.095Z,10.38
2016-10-19T11:23:07.739Z,10.22
2016-10-19T11:24:07.743Z,10.18
2016-10-19T11:25:08.077Z,10.39
2016-10-19T11:26:07.671Z,10.49
2016-10-19T11:27:07.406Z,10.56
2016-10-19T11:28:08.076Z,10.51
2016-10-19T11:29:08.134Z,10.57
2016-10-19T11:30:07.113Z,10.70
2016-10-19T11:31:08.075Z,10.73
2016-10-19T11:32:07.705Z,10.67
2016-10-19T11:33:07.160Z,10.66
2016-10-19T11:34:08.057Z,10.67
2016-10-19T11:35:07.513Z,10.41
2016-10-19T11:36:08.295Z,10.43
2016-10-19T11:37:07.752Z,10.23
2016-10-19T11:38:07.808Z,10.34
2016-10-19T11:39:08.376Z,10.30
2016-10-19T11:40:08.096Z,10.43
2016-10-19T11:41:07.469Z,10.43
2016-10-19T11:42:08.192Z,10.51
2016-10-19T11:43:07.850Z,10.28
2016-10-19T11:44:07.450Z,10.46
2016-10-19T11:45:08.151Z,10.50
2016-10-19T11:46:07.784Z,10.50
2016-10-19T11:47:07.182Z,10.54
2016-10-19T11:48:08.364Z,10.49
2016-10-19T11:49:07.759Z,10.09
2016-10-19T11:50:07.159Z,10.17
2016-10-19T11:51:08.068Z,10.34
2016-10-19T11:52:07.469Z,10.30
2016-10-19T11:53:08.175Z,10.10
2016-10-19T11:54:07.931Z,10.09
2016-10-19T11:55:07.634Z,10.28
2016-10-19T11:56:07.160Z,10.09
2016-10-19T11:57:07.783Z,10.15
2016-10-19T11:58:07.937Z,10.29
2016-10-19T11:59:08.067Z,10.59
2016-10-19T12:00:07.869Z,10.78
2016-10-19T12:01:07.603Z,10.74
2016-10-19T12:02:08.191Z,10.70
2016-10-19T12:03:08.116Z,10.63
2016-10-19T12:04:07.487Z,10.72
2016-10-19T12:05:08.429Z,10.81
2016-10-19T12:06:07.798Z,10.75
2016-10-19T12:07:07.424Z,10.88
2016-10-19T12:08:08.109Z,10.88
2016-10-19T12:09:08.198Z,10.96
2016-10-19T12:10:07.487Z,10.99
2016-10-19T12:11:08.059Z,10.99
2016-10-19T12:12:07.485Z,10.88
2016-10-19T12:13:08.191Z,10.97
2016-10-19T12:14:08.156Z,11.01
2016-10-19T12:15:07.830Z,11.07
2016-10-19T12:16:08.172Z,11.09
2016-10-19T12:17:07.820Z,11.12
2016-10-19T12:18:07.797Z,11.13
2016-10-19T12:19:07.169Z,11.02
2016-10-19T12:20:07.897Z,11.02
2016-10-19T12:21:07.484Z,11.05
2016-10-19T12:22:08.105Z,11.08
2016-10-19T12:23:07.802Z,11.11
2016-10-19T12:24:07.859Z,11.03
2016-10-19T12:25:08.457Z,11.01
2016-10-19T12:26:08.171Z,10.86
2016-10-19T12:27:07.581Z,10.87
2016-10-19T12:28:08.153Z,10.80
2016-10-19T12:29:08.161Z,10.81
2016-10-19T12:30:07.380Z,10.78
2016-10-19T12:31:08.399Z,10.87
2016-10-19T12:32:07.852Z,10.87
2016-10-19T12:33:07.420Z,10.90
2016-10-19T12:34:08.533Z,10.93
2016-10-19T12:35:07.779Z,10.85
2016-10-19T12:36:07.184Z,10.81
2016-10-19T12:37:07.906Z,10.83
2016-10-19T12:38:07.830Z,10.80
2016-10-19T12:39:08.429Z,10.87
2016-10-19T12:40:07.937Z,10.82
2016-10-19T12:41:07.523Z,10.84
2016-10-19T12:42:08.144Z,10.85
2016-10-19T12:43:08.161Z,10.82
2016-10-19T12:44:07.580Z,10.83
2016-10-19T12:45:08.185Z,10.87
2016-10-19T12:46:08.171Z,10.83
2016-10-19T12:47:07.532Z,10.59
2016-10-19T12:48:08.211Z,10.70
2016-10-19T12:49:07.931Z,10.82
2016-10-19T12:50:07.505Z,10.82
2016-10-19T12:51:08.214Z,10.80
2016-10-19T12:52:07.768Z,10.86
2016-10-19T12:53:07.956Z,10.77